Weather at West Memphis Municipal Airport

Public forecast

Using degrees Fahrenheit for public forecast. Weather courtesy of forecast.io.

Current aviation weather report (METAR) for West Memphis Municipal Airport

Retrieved 2021/03/09 04:53 UTC (27 minutes ago):

KAWM 090453Z AUTO 18006KT 10SM CLR 08/01 A3039 RMK AO2 SLP290 T00830011

Closest aviation forecast (TAF) to West Memphis Municipal Airport

Forecast is more than 6 hours old.

Closest forecast is Memphis International Airport, 13.8 nm (25.6 km) ESE. Retrieved 2021/03/08 18:22 UTC (11 hours ago):

TAF KMEM 081720Z 0818/0924 17005KT P6SM SKC FM090200 18003KT P6SM SCT250 FM091000 18006KT P6SM BKN200 FM091700 20010KT P6SM SCT200